createdAt,value
2019-01-23T00:00:52.597Z,-3.50
2019-01-23T00:05:44.224Z,-3.70
2019-01-23T00:10:35.121Z,-3.70
2019-01-23T00:15:26.009Z,-3.80
2019-01-23T00:20:16.898Z,-3.80
2019-01-23T00:25:08.533Z,-3.50
2019-01-23T00:30:00.281Z,-3.00
2019-01-23T00:34:51.106Z,-3.00
2019-01-23T00:39:42.072Z,-3.00
2019-01-23T00:44:32.978Z,-3.20
2019-01-23T00:49:23.873Z,-3.40
2019-01-23T00:54:14.776Z,-3.60
2019-01-23T00:59:05.680Z,-3.80
2019-01-23T01:03:57.377Z,-3.90
2019-01-23T01:08:48.277Z,-4.00
2019-01-23T01:13:39.169Z,-4.00
2019-01-23T01:18:30.080Z,-4.10
2019-01-23T01:23:20.978Z,-4.20
2019-01-23T01:28:12.697Z,-4.30
2019-01-23T01:33:04.339Z,-4.00
2019-01-23T01:37:55.234Z,-4.00
2019-01-23T01:42:46.146Z,-3.40
2019-01-23T01:47:37.048Z,-3.40
2019-01-23T01:52:27.949Z,-3.60
2019-01-23T01:57:18.846Z,-3.80
2019-01-23T02:02:10.542Z,-4.10
2019-01-23T02:07:01.446Z,-4.20
2019-01-23T02:11:52.344Z,-4.20
2019-01-23T02:16:43.242Z,-4.30
2019-01-23T02:21:34.929Z,-4.40
2019-01-23T02:26:25.843Z,-4.40
2019-01-23T02:31:16.749Z,-4.50
2019-01-23T02:36:07.690Z,-4.60
2019-01-23T02:40:58.598Z,-4.60
2019-01-23T02:45:49.513Z,-4.50
2019-01-23T02:50:40.460Z,-3.90
2019-01-23T02:55:31.358Z,-3.60
2019-01-23T03:00:22.282Z,-3.70
2019-01-23T03:05:14.145Z,-3.90
2019-01-23T03:10:05.052Z,-4.10
2019-01-23T03:14:55.962Z,-4.20
2019-01-23T03:19:46.894Z,-4.30
2019-01-23T03:24:37.808Z,-4.40
2019-01-23T03:29:29.464Z,-4.50
2019-01-23T03:34:20.362Z,-4.50
2019-01-23T03:39:11.277Z,-4.50
2019-01-23T03:44:02.179Z,-4.60
2019-01-23T03:48:59.998Z,-4.60
2019-01-23T03:53:50.998Z,-4.60
2019-01-23T03:58:41.896Z,-4.50
2019-01-23T04:03:32.790Z,-3.90
2019-01-23T04:08:23.755Z,-3.50
2019-01-23T04:13:14.655Z,-3.60
2019-01-23T04:18:05.557Z,-3.80
2019-01-23T04:22:56.523Z,-4.00
2019-01-23T04:27:47.434Z,-4.10
2019-01-23T04:32:38.339Z,-4.20
2019-01-23T04:37:29.966Z,-4.30
2019-01-23T04:42:20.878Z,-4.30
2019-01-23T04:47:11.775Z,-4.40
2019-01-23T04:52:02.726Z,-4.40
2019-01-23T04:56:53.654Z,-4.50
2019-01-23T05:01:44.562Z,-4.50
2019-01-23T05:06:35.491Z,-4.60
2019-01-23T05:11:26.410Z,-4.50
2019-01-23T05:16:17.305Z,-4.00
2019-01-23T05:21:08.207Z,-3.60
2019-01-23T05:25:59.105Z,-3.60
2019-01-23T05:30:50.804Z,-4.00
2019-01-23T05:35:41.704Z,-4.00
2019-01-23T05:40:32.609Z,-4.10
2019-01-23T05:45:23.530Z,-4.30
2019-01-23T05:50:14.426Z,-4.40
2019-01-23T05:55:05.326Z,-4.50
2019-01-23T06:00:02.322Z,-4.60
2019-01-23T06:04:47.914Z,-4.60
2019-01-23T06:09:38.871Z,-4.70
2019-01-23T06:14:29.771Z,-4.70
2019-01-23T06:19:20.679Z,-4.80
2019-01-23T06:24:11.574Z,-4.80
2019-01-23T06:29:02.496Z,-4.40
2019-01-23T06:33:53.414Z,-3.90
2019-01-23T06:38:44.383Z,-3.90
2019-01-23T06:43:35.282Z,-4.10
2019-01-23T06:48:26.187Z,-4.40
2019-01-23T06:53:17.138Z,-4.50
2019-01-23T06:58:08.042Z,-4.60
2019-01-23T07:02:58.955Z,-4.80
2019-01-23T07:07:49.858Z,-4.90
2019-01-23T07:12:40.810Z,-5.00
2019-01-23T07:17:31.888Z,-5.00
2019-01-23T07:22:22.799Z,-5.10
2019-01-23T07:27:13.785Z,-5.10
2019-01-23T07:32:04.799Z,-5.10
2019-01-23T07:36:55.720Z,-5.20
2019-01-23T07:41:46.643Z,-5.00
2019-01-23T07:46:37.542Z,-4.40
2019-01-23T07:51:28.449Z,-4.10
2019-01-23T07:56:19.346Z,-4.20
2019-01-23T08:01:10.345Z,-4.40
2019-01-23T08:06:02.042Z,-4.70
2019-01-23T08:10:52.992Z,-4.70
2019-01-23T08:15:44.716Z,-4.90
2019-01-23T08:20:35.740Z,-4.90
2019-01-23T08:25:26.647Z,-4.90
2019-01-23T08:30:18.198Z,-5.00
2019-01-23T08:35:09.101Z,-5.00
2019-01-23T08:40:00.011Z,-5.00
2019-01-23T08:44:50.935Z,-4.90
2019-01-23T08:49:41.942Z,-5.00
2019-01-23T08:54:32.846Z,-4.90
2019-01-23T08:59:23.749Z,-4.70
2019-01-23T09:04:14.698Z,-4.10
2019-01-23T09:09:05.614Z,-3.60
2019-01-23T09:13:56.550Z,-3.60
2019-01-23T09:18:47.454Z,-3.70
2019-01-23T09:23:38.434Z,-3.90
2019-01-23T09:28:29.350Z,-3.90
2019-01-23T09:33:26.042Z,-4.00
2019-01-23T09:38:17.782Z,-4.00
2019-01-23T09:43:11.712Z,-4.00
2019-01-23T09:48:08.241Z,-3.90
2019-01-23T09:53:00.111Z,-3.90
2019-01-23T09:57:51.810Z,-3.80
2019-01-23T10:02:42.886Z,-3.90
2019-01-23T10:07:33.794Z,-3.80
2019-01-23T10:12:25.436Z,-3.80
2019-01-23T10:17:16.402Z,-3.70
2019-01-23T10:22:07.321Z,-3.40
2019-01-23T10:26:58.223Z,-2.80
2019-01-23T10:31:49.186Z,-2.70
2019-01-23T10:36:40.179Z,-2.80
2019-01-23T10:41:31.226Z,-3.00
2019-01-23T10:46:22.128Z,-3.00
2019-01-23T10:51:13.040Z,-3.10
2019-01-23T10:56:03.955Z,-3.10
2019-01-23T11:00:54.870Z,-3.10
2019-01-23T11:05:45.788Z,-3.00
2019-01-23T11:10:36.708Z,-3.00
2019-01-23T11:15:27.610Z,-2.90
2019-01-23T11:20:18.524Z,-2.80
2019-01-23T11:25:09.418Z,-2.60
2019-01-23T11:30:00.323Z,-2.60
2019-01-23T11:34:51.234Z,-2.10
2019-01-23T11:39:42.891Z,-1.30
2019-01-23T11:44:33.804Z,-1.30
2019-01-23T11:49:25.442Z,-1.20
2019-01-23T11:54:17.097Z,-1.20
2019-01-23T11:59:08.046Z,-1.20
2019-01-23T12:03:58.954Z,-1.20
2019-01-23T12:08:49.854Z,-1.10
2019-01-23T12:13:40.810Z,-1.00
2019-01-23T12:18:31.727Z,-0.80
2019-01-23T12:23:22.708Z,-0.70
2019-01-23T12:28:13.605Z,-0.50
2019-01-23T12:33:05.343Z,-0.20
2019-01-23T12:37:57.002Z,0.30
2019-01-23T12:42:47.955Z,0.30
2019-01-23T12:47:39.599Z,1.10
2019-01-23T12:52:30.514Z,1.10
2019-01-23T12:57:21.414Z,1.00
2019-01-23T13:02:12.318Z,1.00
2019-01-23T13:07:03.259Z,1.00
2019-01-23T13:11:54.253Z,1.00
2019-01-23T13:16:45.158Z,1.00
2019-01-23T13:21:36.134Z,1.00
2019-01-23T13:26:27.048Z,1.00
2019-01-23T13:31:17.974Z,0.80
2019-01-23T13:36:08.976Z,0.70
2019-01-23T13:40:59.880Z,0.90
2019-01-23T13:45:50.786Z,1.30
2019-01-23T13:50:41.681Z,1.20
2019-01-23T13:55:33.377Z,0.70
2019-01-23T14:00:26.067Z,0.70
2019-01-23T14:05:17.779Z,0.30
2019-01-23T14:10:11.700Z,0.20
2019-01-23T14:15:03.343Z,-0.20
2019-01-23T14:19:54.983Z,-0.30
2019-01-23T14:24:45.886Z,-0.40
2019-01-23T14:29:37.530Z,-0.70
2019-01-23T14:34:29.418Z,-0.40
2019-01-23T14:39:20.318Z,-0.50
2019-01-23T14:44:11.285Z,-0.30
2019-01-23T14:49:02.191Z,-0.50
2019-01-23T14:53:54.590Z,-1.10
2019-01-23T14:58:45.490Z,-1.10
2019-01-23T15:03:37.185Z,-1.60
2019-01-23T15:08:28.080Z,-1.60
2019-01-23T15:13:18.974Z,-1.80
2019-01-23T15:18:10.618Z,-2.10
2019-01-23T15:23:01.521Z,-2.20
2019-01-23T15:27:53.161Z,-2.40
2019-01-23T15:32:44.857Z,-2.40
2019-01-23T15:37:35.755Z,-2.40
2019-01-23T15:42:26.674Z,-1.90
2019-01-23T15:47:17.558Z,-1.80
2019-01-23T15:52:09.201Z,-2.30
2019-01-23T15:57:00.107Z,-2.30
2019-01-23T16:01:51.767Z,-2.80
2019-01-23T16:06:42.682Z,-2.80
2019-01-23T16:11:33.586Z,-3.00
2019-01-23T16:16:24.547Z,-3.10
2019-01-23T16:21:15.432Z,-3.20
2019-01-23T16:26:06.347Z,-3.30
2019-01-23T16:30:57.250Z,-3.40
2019-01-23T16:35:48.950Z,-3.40
2019-01-23T16:40:39.889Z,-3.40
2019-01-23T16:45:30.771Z,-2.90
2019-01-23T16:50:22.676Z,-2.50
2019-01-23T16:55:14.306Z,-2.90
2019-01-23T17:00:08.830Z,-3.20
2019-01-23T17:04:59.730Z,-3.20
2019-01-23T17:09:51.383Z,-3.50
2019-01-23T17:14:42.286Z,-3.50
2019-01-23T17:19:33.939Z,-3.70
2019-01-23T17:24:25.583Z,-3.80
2019-01-23T17:29:16.482Z,-3.80
2019-01-23T17:34:07.390Z,-3.80
2019-01-23T17:38:59.039Z,-3.90
2019-01-23T17:43:49.936Z,-3.90
2019-01-23T17:48:41.591Z,-3.40
2019-01-23T17:53:32.494Z,-3.40
2019-01-23T17:58:24.138Z,-2.90
2019-01-23T18:03:15.052Z,-3.00
2019-01-23T18:08:06.751Z,-3.30
2019-01-23T18:12:57.655Z,-3.30
2019-01-23T18:17:48.550Z,-3.50
2019-01-23T18:22:39.450Z,-3.60
2019-01-23T18:27:30.368Z,-3.70
2019-01-23T18:32:22.022Z,-3.80
2019-01-23T18:37:23.807Z,-3.90
2019-01-23T18:47:40.240Z,-3.90
2019-01-23T18:52:31.143Z,-3.90
2019-01-23T18:57:23.674Z,-3.70
2019-01-23T19:02:14.735Z,-3.70
2019-01-23T19:07:05.617Z,-3.10
2019-01-23T19:11:56.506Z,-2.90
2019-01-23T19:16:47.405Z,-3.10
2019-01-23T19:21:38.305Z,-3.30
2019-01-23T19:26:29.270Z,-3.40
2019-01-23T19:31:20.198Z,-3.50
2019-01-23T19:36:11.122Z,-3.60
2019-01-23T19:41:02.023Z,-3.70
2019-01-23T19:45:52.930Z,-3.80
2019-01-23T19:50:43.964Z,-3.80
2019-01-23T19:55:34.867Z,-3.90
2019-01-23T20:00:25.831Z,-3.90
2019-01-23T20:05:17.462Z,-3.90
2019-01-23T20:10:14.335Z,-3.70
2019-01-23T20:15:00.097Z,-3.70
2019-01-23T20:19:51.126Z,-3.10
2019-01-23T20:24:42.147Z,-3.00
2019-01-23T20:29:33.050Z,-3.00
2019-01-23T20:34:23.954Z,-3.20
2019-01-23T20:39:14.893Z,-3.30
2019-01-23T20:44:05.818Z,-3.40
2019-01-23T20:48:56.714Z,-3.50
2019-01-23T20:53:47.614Z,-3.60
2019-01-23T20:58:38.562Z,-3.70
2019-01-23T21:03:34.774Z,-3.70
2019-01-23T21:08:20.508Z,-3.70
2019-01-23T21:13:11.411Z,-3.70
2019-01-23T21:18:02.342Z,-3.80
2019-01-23T21:22:53.262Z,-3.80
2019-01-23T21:27:44.186Z,-3.60
2019-01-23T21:32:35.222Z,-3.00
2019-01-23T21:37:26.226Z,-2.70
2019-01-23T21:42:17.134Z,-2.80
2019-01-23T21:47:08.069Z,-2.90
2019-01-23T21:51:59.074Z,-3.00
2019-01-23T21:56:50.014Z,-3.20
2019-01-23T22:01:41.026Z,-3.30
2019-01-23T22:06:31.938Z,-3.30
2019-01-23T22:11:22.839Z,-3.40
2019-01-23T22:16:13.740Z,-3.40
2019-01-23T22:21:04.703Z,-3.40
2019-01-23T22:25:56.473Z,-3.40
2019-01-23T22:30:47.458Z,-3.40
2019-01-23T22:35:38.374Z,-3.40
2019-01-23T22:40:29.286Z,-3.20
2019-01-23T22:45:20.205Z,-2.60
2019-01-23T22:50:11.127Z,-2.40
2019-01-23T22:55:02.043Z,-2.50
2019-01-23T22:59:52.946Z,-2.60
2019-01-23T23:04:43.882Z,-2.70
2019-01-23T23:09:34.819Z,-2.80
2019-01-23T23:14:26.542Z,-3.00
2019-01-23T23:19:17.486Z,-3.00
2019-01-23T23:24:08.498Z,-3.00
2019-01-23T23:28:59.395Z,-3.10
2019-01-23T23:33:50.319Z,-3.10
2019-01-23T23:38:41.238Z,-3.10
2019-01-23T23:43:32.154Z,-3.10
2019-01-23T23:48:23.070Z,-3.00
2019-01-23T23:53:13.990Z,-2.50
2019-01-23T23:58:04.890Z,-2.10
